createdAt,value
2022-09-13T00:00:44.477Z,24.1
2022-09-13T00:01:48.966Z,24.1
2022-09-13T00:02:53.437Z,24.1
2022-09-13T00:03:57.654Z,24.1
2022-09-13T00:05:01.870Z,24.1
2022-09-13T00:06:06.097Z,24.09
2022-09-13T00:07:10.313Z,24.09
2022-09-13T00:08:14.557Z,24.09
2022-09-13T00:09:18.817Z,24.1
2022-09-13T00:10:23.037Z,24.1
2022-09-13T00:11:27.237Z,24.08
2022-09-13T00:12:31.443Z,24.07
2022-09-13T00:13:35.670Z,24.07
2022-09-13T00:14:39.935Z,24.06
2022-09-13T00:15:44.159Z,24.05
2022-09-13T00:16:48.437Z,24.05
2022-09-13T00:17:52.785Z,24.05
2022-09-13T00:18:57.006Z,24.05
2022-09-13T00:20:01.471Z,24.04
2022-09-13T00:21:05.684Z,24.03
2022-09-13T00:22:09.904Z,24.03
2022-09-13T00:23:14.207Z,24.03
2022-09-13T00:24:18.408Z,24.03
2022-09-13T00:25:22.771Z,24.03
2022-09-13T00:26:27.037Z,24.02
2022-09-13T00:27:31.243Z,24.02
2022-09-13T00:28:35.446Z,24.03
2022-09-13T00:29:39.774Z,24.02
2022-09-13T00:30:43.995Z,24.02
2022-09-13T00:31:48.216Z,24.01
2022-09-13T00:32:52.739Z,24.03
2022-09-13T00:33:56.955Z,24.04
2022-09-13T00:35:01.166Z,24.03
2022-09-13T00:36:05.405Z,24.03
2022-09-13T00:37:09.623Z,24.02
2022-09-13T00:38:13.861Z,24.01
2022-09-13T00:39:18.259Z,24.01
2022-09-13T00:40:22.512Z,24.01
2022-09-13T00:41:26.989Z,24.02
2022-09-13T00:42:31.193Z,24.02
2022-09-13T00:43:35.397Z,24.01
2022-09-13T00:44:39.652Z,24.02
2022-09-13T00:45:43.917Z,24.02
2022-09-13T00:46:48.304Z,24.02
2022-09-13T00:47:52.517Z,24.02
2022-09-13T00:48:56.768Z,24.01
2022-09-13T00:50:00.996Z,24.02
2022-09-13T00:51:05.205Z,24.01
2022-09-13T00:52:09.488Z,24.02
2022-09-13T00:53:13.684Z,24.01
2022-09-13T00:54:17.936Z,24.01
2022-09-13T00:55:22.228Z,24.02
2022-09-13T00:56:26.451Z,24.01
2022-09-13T00:57:30.718Z,24.01
2022-09-13T00:58:34.951Z,24.02
2022-09-13T00:59:39.165Z,24.02
2022-09-13T01:00:43.448Z,24.02
2022-09-13T01:01:47.864Z,24.02
2022-09-13T01:02:52.280Z,24.02
2022-09-13T01:03:56.502Z,24.03
2022-09-13T01:05:00.721Z,24.04
2022-09-13T01:06:04.998Z,24.02
2022-09-13T01:07:09.225Z,24.02
2022-09-13T01:08:13.499Z,24.01
2022-09-13T01:09:17.718Z,24
2022-09-13T01:10:21.950Z,24
2022-09-13T01:11:26.151Z,23.99
2022-09-13T01:12:30.363Z,24
2022-09-13T01:13:34.599Z,24
2022-09-13T01:14:38.929Z,24
2022-09-13T01:15:43.135Z,24
2022-09-13T01:16:48.082Z,24
2022-09-13T01:17:52.549Z,23.99
2022-09-13T01:18:56.763Z,24
2022-09-13T01:20:01.031Z,23.99
2022-09-13T01:21:05.289Z,23.99
2022-09-13T01:22:09.515Z,23.99
2022-09-13T01:23:13.738Z,23.99
2022-09-13T01:24:17.961Z,23.99
2022-09-13T01:25:22.215Z,23.99
2022-09-13T01:26:26.464Z,24
2022-09-13T01:27:30.680Z,24
2022-09-13T01:28:34.906Z,23.99
2022-09-13T01:29:39.148Z,24
2022-09-13T01:30:44.377Z,23.98
2022-09-13T01:31:51.178Z,23.98
2022-09-13T01:32:55.673Z,23.98
2022-09-13T01:33:59.903Z,23.99
2022-09-13T01:35:04.133Z,23.98
2022-09-13T01:36:08.382Z,23.96
2022-09-13T01:37:12.613Z,23.96
2022-09-13T01:38:16.811Z,23.96
2022-09-13T01:39:21.051Z,23.96
2022-09-13T01:40:25.283Z,23.96
2022-09-13T01:41:29.516Z,23.96
2022-09-13T01:42:33.771Z,23.95
2022-09-13T01:43:38.011Z,23.96
2022-09-13T01:44:42.239Z,23.96
2022-09-13T01:45:46.528Z,23.96
2022-09-13T01:46:50.889Z,23.96
2022-09-13T01:47:55.467Z,23.95
2022-09-13T01:48:59.706Z,23.95
2022-09-13T01:50:04.656Z,23.95
2022-09-13T01:51:09.465Z,23.95
2022-09-13T01:52:14.075Z,23.94
2022-09-13T01:53:18.299Z,23.94
2022-09-13T01:54:22.497Z,23.95
2022-09-13T01:55:26.729Z,23.95
2022-09-13T01:56:30.971Z,23.96
2022-09-13T01:57:35.490Z,23.96
2022-09-13T01:58:39.705Z,23.96
2022-09-13T01:59:43.885Z,23.97
2022-09-13T02:00:48.138Z,23.96
2022-09-13T02:01:52.491Z,23.95
2022-09-13T02:02:56.951Z,23.95
2022-09-13T02:04:01.169Z,23.96
2022-09-13T02:05:05.404Z,23.95
2022-09-13T02:06:09.611Z,23.95
2022-09-13T02:07:13.844Z,23.94
2022-09-13T02:08:18.131Z,23.94
2022-09-13T02:09:22.395Z,23.93
2022-09-13T02:10:26.611Z,23.94
2022-09-13T02:11:30.879Z,23.93
2022-09-13T02:12:35.074Z,23.94
2022-09-13T02:13:39.338Z,23.94
2022-09-13T02:14:43.565Z,23.95
2022-09-13T02:15:47.775Z,23.96
2022-09-13T02:16:52.051Z,23.96
2022-09-13T02:17:56.333Z,23.96
2022-09-13T02:19:00.553Z,23.94
2022-09-13T02:20:04.772Z,23.93
2022-09-13T02:21:08.993Z,23.93
2022-09-13T02:22:13.199Z,23.93
2022-09-13T02:23:17.425Z,23.92
2022-09-13T02:24:21.640Z,23.91
2022-09-13T02:25:25.849Z,23.91
2022-09-13T02:26:30.104Z,23.91
2022-09-13T02:27:34.309Z,23.91
2022-09-13T02:28:38.541Z,23.9
2022-09-13T02:29:42.758Z,23.9
2022-09-13T02:30:46.989Z,23.91
2022-09-13T02:31:51.245Z,23.91
2022-09-13T02:32:55.654Z,23.91
2022-09-13T02:33:59.903Z,23.9
2022-09-13T02:35:04.177Z,23.91
2022-09-13T02:36:08.407Z,23.91
2022-09-13T02:37:12.618Z,23.91
2022-09-13T02:38:16.846Z,23.91
2022-09-13T02:39:21.058Z,23.91
2022-09-13T02:40:25.341Z,23.91
2022-09-13T02:41:29.531Z,23.9
2022-09-13T02:42:33.737Z,23.89
2022-09-13T02:43:37.964Z,23.89
2022-09-13T02:44:42.181Z,23.9
2022-09-13T02:45:46.462Z,23.89
2022-09-13T02:46:50.955Z,23.89
2022-09-13T02:47:55.169Z,23.88
2022-09-13T02:48:59.368Z,23.88
2022-09-13T02:50:03.586Z,23.89
2022-09-13T02:51:07.842Z,23.88
2022-09-13T02:52:12.050Z,23.89
2022-09-13T02:53:16.271Z,23.88
2022-09-13T02:54:20.492Z,23.87
2022-09-13T02:55:24.715Z,23.87
2022-09-13T02:56:28.941Z,23.86
2022-09-13T02:57:33.184Z,23.87
2022-09-13T02:58:37.448Z,23.86
2022-09-13T02:59:41.749Z,23.87
2022-09-13T03:00:46.097Z,23.87
2022-09-13T03:01:50.536Z,23.88
2022-09-13T03:02:54.903Z,23.88
2022-09-13T03:03:59.314Z,23.87
2022-09-13T03:05:03.533Z,23.87
2022-09-13T03:06:07.761Z,23.87
2022-09-13T03:07:11.957Z,23.87
2022-09-13T03:08:17.215Z,23.87
2022-09-13T03:09:21.428Z,23.87
2022-09-13T03:10:25.644Z,23.87
2022-09-13T03:11:29.881Z,23.87
2022-09-13T03:12:34.078Z,23.87
2022-09-13T03:13:38.310Z,23.86
2022-09-13T03:14:42.505Z,23.85
2022-09-13T03:15:46.807Z,23.86
2022-09-13T03:16:51.102Z,23.86
2022-09-13T03:17:55.561Z,23.86
2022-09-13T03:18:59.770Z,23.86
2022-09-13T03:20:04.003Z,23.86
2022-09-13T03:21:08.209Z,23.86
2022-09-13T03:22:12.448Z,23.86
2022-09-13T03:23:16.658Z,23.86
2022-09-13T03:24:20.882Z,23.85
2022-09-13T03:25:25.099Z,23.84
2022-09-13T03:26:29.332Z,23.85
2022-09-13T03:27:33.555Z,23.84
2022-09-13T03:28:37.784Z,23.85
2022-09-13T03:29:42.076Z,23.86
2022-09-13T03:30:46.295Z,23.84
2022-09-13T03:31:50.542Z,23.84
2022-09-13T03:32:54.938Z,23.84
2022-09-13T03:33:59.184Z,23.85
2022-09-13T03:35:03.421Z,23.86
2022-09-13T03:36:07.631Z,23.86
2022-09-13T03:37:12.084Z,23.86
2022-09-13T03:38:16.310Z,23.86
2022-09-13T03:39:20.562Z,23.86
2022-09-13T03:40:24.774Z,23.86
2022-09-13T03:41:29.015Z,23.87
2022-09-13T03:42:33.254Z,23.86
2022-09-13T03:43:37.481Z,23.86
2022-09-13T03:44:41.692Z,23.87
2022-09-13T03:45:45.949Z,23.87
2022-09-13T03:46:50.331Z,23.87
2022-09-13T03:47:54.545Z,23.87
2022-09-13T03:48:58.794Z,23.89
2022-09-13T03:50:03.019Z,23.89
2022-09-13T03:51:07.295Z,23.88
2022-09-13T03:52:11.561Z,23.91
2022-09-13T03:53:15.790Z,23.92
2022-09-13T03:54:20.030Z,23.92
2022-09-13T03:55:24.285Z,23.92
2022-09-13T03:56:28.495Z,23.92
2022-09-13T03:57:32.710Z,23.93
2022-09-13T03:58:36.999Z,23.93
2022-09-13T03:59:41.241Z,23.92
2022-09-13T04:00:45.503Z,23.93
2022-09-13T04:01:49.955Z,23.92
2022-09-13T04:02:54.345Z,23.92
2022-09-13T04:03:58.557Z,23.93
2022-09-13T04:05:02.800Z,23.92
2022-09-13T04:06:07.018Z,23.98
2022-09-13T04:07:11.257Z,24.01
2022-09-13T04:08:15.624Z,23.98
2022-09-13T04:09:20.872Z,23.95
2022-09-13T04:10:25.101Z,23.89
2022-09-13T04:11:29.310Z,23.87
2022-09-13T04:12:33.524Z,23.85
2022-09-13T04:13:37.768Z,23.84
2022-09-13T04:14:41.956Z,23.81
2022-09-13T04:15:46.216Z,23.83
2022-09-13T04:16:50.456Z,23.79
2022-09-13T04:17:54.701Z,23.78
2022-09-13T04:18:59.018Z,23.78
2022-09-13T04:20:03.261Z,23.79
2022-09-13T04:21:07.467Z,23.78
2022-09-13T04:22:11.699Z,23.79
2022-09-13T04:23:15.942Z,23.73
2022-09-13T04:24:20.199Z,23.74
2022-09-13T04:25:24.400Z,23.69
2022-09-13T04:26:28.606Z,23.66
2022-09-13T04:27:32.822Z,23.63
2022-09-13T04:28:37.070Z,23.63
2022-09-13T04:29:41.287Z,23.6
2022-09-13T04:30:45.519Z,23.62
2022-09-13T04:31:49.792Z,23.6
2022-09-13T04:32:54.244Z,23.61
2022-09-13T04:33:58.570Z,23.59
2022-09-13T04:35:02.807Z,23.57
2022-09-13T04:36:07.037Z,23.57
2022-09-13T04:37:11.278Z,23.57
2022-09-13T04:38:15.542Z,23.57
2022-09-13T04:39:19.736Z,23.56
2022-09-13T04:40:23.999Z,23.54
2022-09-13T04:41:28.217Z,23.54
2022-09-13T04:42:32.481Z,23.53
2022-09-13T04:43:36.779Z,23.51
2022-09-13T04:44:41.181Z,23.51
2022-09-13T04:45:45.486Z,23.49
2022-09-13T04:46:49.843Z,23.5
2022-09-13T04:47:54.063Z,23.46
2022-09-13T04:48:58.284Z,23.45
2022-09-13T04:50:02.515Z,23.48
2022-09-13T04:51:06.768Z,23.45
2022-09-13T04:52:10.994Z,23.45
2022-09-13T04:53:15.262Z,23.44
2022-09-13T04:54:19.537Z,23.44
2022-09-13T04:55:23.804Z,23.44
2022-09-13T04:56:28.055Z,23.41
2022-09-13T04:57:32.304Z,23.41
2022-09-13T04:58:36.515Z,23.41
2022-09-13T04:59:40.750Z,23.44
2022-09-13T05:00:45.019Z,23.44
2022-09-13T05:01:49.563Z,23.41
2022-09-13T05:02:53.935Z,23.39
2022-09-13T05:03:58.151Z,23.39
2022-09-13T05:05:02.389Z,23.39
2022-09-13T05:06:06.610Z,23.38
2022-09-13T05:07:10.887Z,23.39
2022-09-13T05:08:15.122Z,23.38
2022-09-13T05:09:19.351Z,23.38
2022-09-13T05:10:23.798Z,23.36
2022-09-13T05:11:28.028Z,23.37
2022-09-13T05:12:32.247Z,23.35
2022-09-13T05:13:36.475Z,23.38
2022-09-13T05:14:40.760Z,23.36
2022-09-13T05:15:45.019Z,23.36
2022-09-13T05:16:49.398Z,23.35
2022-09-13T05:17:53.678Z,23.34
2022-09-13T05:18:57.894Z,23.32
2022-09-13T05:20:02.265Z,23.31
2022-09-13T05:21:06.490Z,23.32
2022-09-13T05:22:10.717Z,23.33
2022-09-13T05:23:14.987Z,23.33
2022-09-13T05:24:19.188Z,23.34
2022-09-13T05:25:26.026Z,23.33
2022-09-13T05:26:30.359Z,23.33
2022-09-13T05:27:34.756Z,23.33
2022-09-13T05:28:39.023Z,23.32
2022-09-13T05:29:43.270Z,23.3
2022-09-13T05:30:47.532Z,23.22
2022-09-13T05:31:51.863Z,23.21
2022-09-13T05:32:56.086Z,23.24
2022-09-13T05:34:00.305Z,23.27
2022-09-13T05:35:04.551Z,23.25
2022-09-13T05:36:08.767Z,23.26
2022-09-13T05:37:13.016Z,23.29
2022-09-13T05:38:17.265Z,23.3
2022-09-13T05:39:54.233Z,23.31
2022-09-13T05:41:17.606Z,23.4
2022-09-13T05:42:21.845Z,23.39
2022-09-13T05:43:26.559Z,23.41
2022-09-13T05:44:30.844Z,23.43
2022-09-13T05:45:35.064Z,23.4
2022-09-13T05:46:39.462Z,23.42
2022-09-13T05:47:43.702Z,23.4
2022-09-13T05:48:47.914Z,23.41
2022-09-13T05:50:09.197Z,23.4
2022-09-13T05:51:59.020Z,23.42
2022-09-13T05:53:03.248Z,23.42
2022-09-13T05:54:07.507Z,23.4
2022-09-13T05:55:11.727Z,23.42
2022-09-13T05:56:16.877Z,23.41
2022-09-13T05:57:21.183Z,23.41
2022-09-13T05:58:26.398Z,23.42
2022-09-13T05:59:30.629Z,23.43
2022-09-13T06:00:34.848Z,23.43
2022-09-13T06:01:39.101Z,23.41
2022-09-13T06:02:43.637Z,23.44
2022-09-13T06:03:47.971Z,23.42
2022-09-13T06:04:52.204Z,23.41
2022-09-13T06:05:56.456Z,23.42
2022-09-13T06:07:00.686Z,23.41
2022-09-13T06:08:04.934Z,23.41
2022-09-13T06:09:09.167Z,23.41
2022-09-13T06:10:13.376Z,23.42
2022-09-13T06:11:17.620Z,23.44
2022-09-13T06:12:21.852Z,23.44
2022-09-13T06:13:26.063Z,23.44
2022-09-13T06:14:30.316Z,23.45
2022-09-13T06:15:34.528Z,23.47
2022-09-13T06:16:45.640Z,23.47
2022-09-13T06:17:49.850Z,23.51
2022-09-13T06:18:54.072Z,23.54
2022-09-13T06:19:58.327Z,23.53
2022-09-13T06:21:02.566Z,23.53
2022-09-13T06:22:06.766Z,23.51
2022-09-13T06:23:10.991Z,23.5
2022-09-13T06:24:15.241Z,23.49
2022-09-13T06:25:19.499Z,23.48
2022-09-13T06:26:23.736Z,23.49
2022-09-13T06:27:27.965Z,23.5
2022-09-13T06:28:35.444Z,23.49
2022-09-13T06:29:41.593Z,23.5
2022-09-13T06:30:45.864Z,23.49
2022-09-13T06:31:50.223Z,23.5
2022-09-13T06:32:54.439Z,23.49
2022-09-13T06:33:58.637Z,23.52
2022-09-13T06:35:02.867Z,23.53
2022-09-13T06:36:07.163Z,23.53
2022-09-13T06:37:11.407Z,23.55
2022-09-13T06:38:15.641Z,23.56
2022-09-13T06:39:19.876Z,23.54
2022-09-13T06:40:25.293Z,23.55
2022-09-13T06:41:29.945Z,23.56
2022-09-13T06:42:34.176Z,23.56
2022-09-13T06:43:38.482Z,23.56
2022-09-13T06:44:42.718Z,23.54
2022-09-13T06:45:47.348Z,23.55
2022-09-13T06:46:51.788Z,23.55
2022-09-13T06:47:56.013Z,23.55
2022-09-13T06:49:00.270Z,23.55
2022-09-13T06:50:04.507Z,23.56
2022-09-13T06:51:08.727Z,23.55
2022-09-13T06:52:12.976Z,23.55
2022-09-13T06:53:17.203Z,23.54
2022-09-13T06:54:21.446Z,23.57
2022-09-13T06:55:25.710Z,23.56
2022-09-13T06:56:29.934Z,23.55
2022-09-13T06:57:34.169Z,23.54
2022-09-13T06:58:38.462Z,23.57
2022-09-13T06:59:42.787Z,23.54
2022-09-13T07:00:47.060Z,23.52
2022-09-13T07:01:58.364Z,23.51
2022-09-13T07:03:02.772Z,23.5
2022-09-13T07:04:07.065Z,23.51
2022-09-13T07:05:11.327Z,23.52
2022-09-13T07:06:18.137Z,23.51
2022-09-13T07:07:25.953Z,23.53
2022-09-13T07:08:30.175Z,23.54
2022-09-13T07:09:34.424Z,23.54
2022-09-13T07:10:38.649Z,23.57
2022-09-13T07:11:42.876Z,23.56
2022-09-13T07:12:47.110Z,23.56
2022-09-13T07:13:51.322Z,23.56
2022-09-13T07:14:55.646Z,23.59
2022-09-13T07:15:59.889Z,23.61
2022-09-13T07:17:04.341Z,23.6
2022-09-13T07:18:08.666Z,23.58
2022-09-13T07:19:12.934Z,23.58
2022-09-13T07:20:17.133Z,23.62
2022-09-13T07:21:21.369Z,23.61
2022-09-13T07:22:25.608Z,23.64
2022-09-13T07:23:29.819Z,23.66
2022-09-13T07:24:34.035Z,23.68
2022-09-13T07:25:38.271Z,23.62
2022-09-13T07:26:42.514Z,23.63
2022-09-13T07:27:46.711Z,23.65
2022-09-13T07:28:50.936Z,23.65
2022-09-13T07:29:55.192Z,23.63
2022-09-13T07:30:59.411Z,23.65
2022-09-13T07:32:03.757Z,23.68
2022-09-13T07:33:07.979Z,23.67
2022-09-13T07:34:12.174Z,23.65
2022-09-13T07:35:16.562Z,23.66
2022-09-13T07:36:20.839Z,23.65
2022-09-13T07:37:25.070Z,23.67
2022-09-13T07:38:29.305Z,23.66
2022-09-13T07:39:33.574Z,23.65
2022-09-13T07:40:37.848Z,23.62
2022-09-13T07:41:42.054Z,23.61
2022-09-13T07:42:46.304Z,23.63
2022-09-13T07:43:50.531Z,23.66
2022-09-13T07:44:54.737Z,23.64
2022-09-13T07:45:59.082Z,23.63
2022-09-13T07:47:03.528Z,23.65
2022-09-13T07:48:10.892Z,23.66
2022-09-13T07:49:15.156Z,23.68
2022-09-13T07:50:19.372Z,23.67
2022-09-13T07:51:23.607Z,23.7
2022-09-13T07:52:27.862Z,23.7
2022-09-13T07:53:32.113Z,23.7
2022-09-13T07:54:36.371Z,23.71
2022-09-13T07:55:40.578Z,23.71
2022-09-13T07:56:44.783Z,23.7
2022-09-13T07:57:49.315Z,23.71
2022-09-13T07:58:53.536Z,23.71
2022-09-13T07:59:57.786Z,23.74
2022-09-13T08:01:02.038Z,23.74
2022-09-13T08:02:06.512Z,23.74
2022-09-13T08:03:11.156Z,23.73
2022-09-13T08:04:15.362Z,23.73
2022-09-13T08:05:19.571Z,23.74
2022-09-13T08:06:23.839Z,23.75
2022-09-13T08:07:28.088Z,23.75
2022-09-13T08:08:32.319Z,23.73
2022-09-13T08:09:36.549Z,23.73
2022-09-13T08:10:40.768Z,23.74
2022-09-13T08:11:51.858Z,23.75
2022-09-13T08:12:56.538Z,23.74
2022-09-13T08:14:00.791Z,23.76
2022-09-13T08:15:05.021Z,23.76
2022-09-13T08:16:09.277Z,23.76
2022-09-13T08:17:13.670Z,23.76
2022-09-13T08:18:17.886Z,23.76
2022-09-13T08:19:23.221Z,23.74
2022-09-13T08:20:27.426Z,23.75
2022-09-13T08:21:31.642Z,23.76
2022-09-13T08:22:35.871Z,23.76
2022-09-13T08:23:40.071Z,23.76
2022-09-13T08:24:44.435Z,23.78
2022-09-13T08:25:48.672Z,23.78
2022-09-13T08:26:52.879Z,23.78
2022-09-13T08:27:57.137Z,23.79
2022-09-13T08:29:01.348Z,23.79
2022-09-13T08:30:05.680Z,23.78
2022-09-13T08:31:09.927Z,23.77
2022-09-13T08:32:14.417Z,23.77
2022-09-13T08:33:19.650Z,23.78
2022-09-13T08:34:23.863Z,23.77
2022-09-13T08:35:28.125Z,23.78
2022-09-13T08:36:32.362Z,23.8
2022-09-13T08:37:36.579Z,23.79
2022-09-13T08:38:40.802Z,23.78
2022-09-13T08:39:45.124Z,23.78
2022-09-13T08:40:49.643Z,23.77
2022-09-13T08:41:53.869Z,23.78
2022-09-13T08:42:58.078Z,23.78
2022-09-13T08:44:02.321Z,23.79
2022-09-13T08:45:06.531Z,23.8
2022-09-13T08:46:10.816Z,23.8
2022-09-13T08:47:15.255Z,23.79
2022-09-13T08:48:19.512Z,23.8
2022-09-13T08:49:23.740Z,23.8
2022-09-13T08:50:27.967Z,23.79
2022-09-13T08:51:32.247Z,23.8
2022-09-13T08:52:36.493Z,23.77
2022-09-13T08:53:40.727Z,23.79
2022-09-13T08:54:45.395Z,23.79
2022-09-13T08:55:49.627Z,23.79
2022-09-13T08:56:53.871Z,23.78
2022-09-13T08:57:58.106Z,23.78
2022-09-13T08:59:03.357Z,23.78
2022-09-13T09:00:07.598Z,23.76
2022-09-13T09:01:11.914Z,23.75
2022-09-13T09:02:16.346Z,23.77
2022-09-13T09:03:20.778Z,23.77
2022-09-13T09:04:24.997Z,23.78
2022-09-13T09:05:29.224Z,23.76
2022-09-13T09:06:33.461Z,23.76
2022-09-13T09:07:37.764Z,23.76
2022-09-13T09:08:42.020Z,23.75
2022-09-13T09:09:46.266Z,23.74
2022-09-13T09:10:50.569Z,23.75
2022-09-13T09:11:54.801Z,23.76
2022-09-13T09:12:59.034Z,23.76
2022-09-13T09:14:03.290Z,23.77
2022-09-13T09:15:07.534Z,23.78
2022-09-13T09:16:11.803Z,23.78
2022-09-13T09:17:16.199Z,23.78
2022-09-13T09:18:20.409Z,23.78
2022-09-13T09:19:24.645Z,23.79
2022-09-13T09:20:28.891Z,23.79
2022-09-13T09:21:33.162Z,23.8
2022-09-13T09:22:37.365Z,23.8
2022-09-13T09:23:41.558Z,23.81
2022-09-13T09:24:45.972Z,23.81
2022-09-13T09:25:50.191Z,23.82
2022-09-13T09:26:54.477Z,23.83
2022-09-13T09:27:58.737Z,23.84
2022-09-13T09:29:02.951Z,23.83
2022-09-13T09:30:07.212Z,23.83
2022-09-13T09:31:11.479Z,23.82
2022-09-13T09:32:15.983Z,23.81
2022-09-13T09:33:20.227Z,23.83
2022-09-13T09:34:24.431Z,23.84
2022-09-13T09:35:29.655Z,23.85
2022-09-13T09:36:33.983Z,23.86
2022-09-13T09:37:38.230Z,23.86
2022-09-13T09:38:42.466Z,23.83
2022-09-13T09:39:46.783Z,23.84
2022-09-13T09:40:51.310Z,23.84
2022-09-13T09:41:55.507Z,23.84
2022-09-13T09:42:59.788Z,23.83
2022-09-13T09:44:04.082Z,23.82
2022-09-13T09:45:08.502Z,23.83
2022-09-13T09:46:13.312Z,23.83
2022-09-13T09:47:17.688Z,23.83
2022-09-13T09:48:21.953Z,23.82
2022-09-13T09:49:26.192Z,23.8
2022-09-13T09:50:30.413Z,23.81
2022-09-13T09:51:34.647Z,23.82
2022-09-13T09:52:38.919Z,23.82
2022-09-13T09:53:43.146Z,23.8
2022-09-13T09:54:47.580Z,23.8
2022-09-13T09:55:51.783Z,23.81
2022-09-13T09:56:56.049Z,23.82
2022-09-13T09:58:00.273Z,23.82
2022-09-13T09:59:04.503Z,23.8
2022-09-13T10:00:08.706Z,23.8
2022-09-13T10:01:13.003Z,23.81
2022-09-13T10:02:17.457Z,23.81
2022-09-13T10:03:21.909Z,23.81
2022-09-13T10:04:26.130Z,23.81
2022-09-13T10:05:30.329Z,23.81
2022-09-13T10:06:34.601Z,23.82
2022-09-13T10:07:39.112Z,23.83
2022-09-13T10:08:44.392Z,23.83
2022-09-13T10:09:48.596Z,23.84
2022-09-13T10:10:52.856Z,23.86
2022-09-13T10:11:57.052Z,23.86
2022-09-13T10:13:01.303Z,23.87
2022-09-13T10:14:05.561Z,23.88
2022-09-13T10:15:09.873Z,23.88
2022-09-13T10:16:14.264Z,23.88
2022-09-13T10:17:18.724Z,23.88
2022-09-13T10:19:58.137Z,23.88
2022-09-13T10:21:02.400Z,23.88
2022-09-13T10:22:06.743Z,23.89
2022-09-13T10:23:10.982Z,23.88
2022-09-13T10:24:15.198Z,23.88
2022-09-13T10:25:19.428Z,23.89
2022-09-13T10:26:23.637Z,23.91
2022-09-13T10:27:27.889Z,23.89
2022-09-13T10:28:32.125Z,23.89
2022-09-13T10:29:36.383Z,23.89
2022-09-13T10:30:40.666Z,23.91
2022-09-13T10:31:47.259Z,23.9
2022-09-13T10:32:51.512Z,23.91
2022-09-13T10:33:55.752Z,23.89
2022-09-13T10:34:59.997Z,23.9
2022-09-13T10:36:04.249Z,23.9
2022-09-13T10:37:08.718Z,23.9
2022-09-13T10:38:12.959Z,23.92
2022-09-13T10:39:17.214Z,23.91
2022-09-13T10:40:21.491Z,23.9
2022-09-13T10:41:25.827Z,23.93
2022-09-13T10:42:30.077Z,23.92
2022-09-13T10:43:34.310Z,23.91
2022-09-13T10:44:38.549Z,23.9
2022-09-13T10:45:42.884Z,23.89
2022-09-13T10:46:47.242Z,23.91
2022-09-13T10:47:51.470Z,23.92
2022-09-13T10:48:55.697Z,23.9
2022-09-13T10:49:59.935Z,23.91
2022-09-13T10:51:04.195Z,23.92
2022-09-13T10:52:11.490Z,23.93
2022-09-13T10:53:18.574Z,23.93
2022-09-13T10:54:22.786Z,23.94
2022-09-13T10:55:27.084Z,23.93
2022-09-13T10:56:31.300Z,23.92
2022-09-13T10:57:35.559Z,23.93
2022-09-13T10:58:39.781Z,23.92
2022-09-13T10:59:44.074Z,23.92
2022-09-13T11:00:48.371Z,23.92
2022-09-13T11:01:52.698Z,23.91
2022-09-13T11:02:56.914Z,23.92
2022-09-13T11:04:01.204Z,23.9
2022-09-13T11:05:05.549Z,23.88
2022-09-13T11:06:09.845Z,23.88
2022-09-13T11:07:14.074Z,23.87
2022-09-13T11:08:18.277Z,23.88
2022-09-13T11:09:22.535Z,23.88
2022-09-13T11:10:26.776Z,23.88
2022-09-13T11:11:31.010Z,23.87
2022-09-13T11:12:35.222Z,23.87
2022-09-13T11:13:42.959Z,23.88
2022-09-13T11:14:48.914Z,23.88
2022-09-13T11:15:53.134Z,23.89
2022-09-13T11:16:57.457Z,23.88
2022-09-13T11:18:01.813Z,23.88
2022-09-13T11:19:06.020Z,23.88
2022-09-13T11:20:10.274Z,23.88
2022-09-13T11:21:14.528Z,23.88
2022-09-13T11:22:18.781Z,23.87
2022-09-13T11:23:22.999Z,23.87
2022-09-13T11:24:27.203Z,23.86
2022-09-13T11:25:31.476Z,23.85
2022-09-13T11:26:38.404Z,23.85
2022-09-13T11:27:42.906Z,23.85
2022-09-13T11:28:47.105Z,23.87
2022-09-13T11:29:51.305Z,23.86
2022-09-13T11:30:55.527Z,23.87
2022-09-13T11:31:59.832Z,23.87
2022-09-13T11:33:04.206Z,23.88
2022-09-13T11:34:08.488Z,23.86
2022-09-13T11:35:12.686Z,23.86
2022-09-13T11:36:16.929Z,23.86
2022-09-13T11:37:21.195Z,23.86
2022-09-13T11:38:25.462Z,23.86
2022-09-13T11:39:29.720Z,23.85
2022-09-13T11:40:33.972Z,23.83
2022-09-13T11:41:38.164Z,23.83
2022-09-13T11:42:42.402Z,23.83
2022-09-13T11:43:46.590Z,23.83
2022-09-13T11:44:51.063Z,23.84
2022-09-13T11:45:55.306Z,23.84
2022-09-13T11:46:59.703Z,23.83
2022-09-13T11:48:03.972Z,23.84
2022-09-13T11:49:08.440Z,23.84
2022-09-13T11:50:12.635Z,23.84
2022-09-13T11:51:16.901Z,23.84
2022-09-13T11:52:21.140Z,23.84
2022-09-13T11:53:29.456Z,23.84
2022-09-13T11:54:34.205Z,23.84
2022-09-13T11:55:38.425Z,23.83
2022-09-13T11:56:42.652Z,23.83
2022-09-13T11:57:46.873Z,23.83
2022-09-13T11:58:51.063Z,23.83
2022-09-13T11:59:55.287Z,23.83
2022-09-13T12:00:59.509Z,23.81
2022-09-13T12:02:03.815Z,23.82
2022-09-13T12:03:08.807Z,23.82
2022-09-13T12:04:13.807Z,23.82
2022-09-13T12:05:22.376Z,23.82
2022-09-13T12:06:27.774Z,23.84
2022-09-13T12:07:31.988Z,23.83
2022-09-13T12:08:36.248Z,23.82
2022-09-13T12:09:40.457Z,23.83
2022-09-13T12:10:44.718Z,23.83
2022-09-13T12:11:48.978Z,23.83
2022-09-13T12:12:53.173Z,23.84
2022-09-13T12:13:57.419Z,23.82
2022-09-13T12:15:01.691Z,23.83
2022-09-13T12:16:05.989Z,23.82
2022-09-13T12:17:10.525Z,23.81
2022-09-13T12:18:14.839Z,23.83
2022-09-13T12:19:19.073Z,23.83
2022-09-13T12:20:23.368Z,23.81
2022-09-13T12:21:27.617Z,23.81
2022-09-13T12:22:31.845Z,23.82
2022-09-13T12:23:36.082Z,23.81
2022-09-13T12:24:40.371Z,23.82
2022-09-13T12:25:44.629Z,23.82
2022-09-13T12:26:48.834Z,23.83
2022-09-13T12:27:53.080Z,23.82
2022-09-13T12:28:57.427Z,23.83
2022-09-13T12:30:01.628Z,23.84
2022-09-13T12:31:05.876Z,23.85
2022-09-13T12:32:10.184Z,23.85
2022-09-13T12:33:14.449Z,23.85
2022-09-13T12:34:18.711Z,23.86
2022-09-13T12:35:22.925Z,23.85
2022-09-13T12:36:27.157Z,23.86
2022-09-13T12:37:31.374Z,23.86
2022-09-13T12:38:35.648Z,23.86
2022-09-13T12:39:39.859Z,23.85
2022-09-13T12:40:44.261Z,23.84
2022-09-13T12:41:48.465Z,23.85
2022-09-13T12:42:52.686Z,23.84
2022-09-13T12:43:56.894Z,23.83
2022-09-13T12:45:01.119Z,23.83
2022-09-13T12:46:05.402Z,23.84
2022-09-13T12:47:09.784Z,23.83
2022-09-13T12:48:14.052Z,23.83
2022-09-13T12:49:20.946Z,23.84
2022-09-13T12:51:59.399Z,23.84
2022-09-13T12:53:03.697Z,23.84
2022-09-13T12:54:07.915Z,23.86
2022-09-13T12:55:23.951Z,23.84
2022-09-13T12:56:53.681Z,23.84
2022-09-13T12:58:00.714Z,23.84
2022-09-13T12:59:04.983Z,23.85
2022-09-13T13:00:09.212Z,23.86
2022-09-13T13:01:13.562Z,23.85
2022-09-13T13:02:18.233Z,23.87
2022-09-13T13:03:22.734Z,23.87
2022-09-13T13:04:27.007Z,23.86
2022-09-13T13:05:31.220Z,23.87
2022-09-13T13:06:35.449Z,23.88
2022-09-13T13:07:39.673Z,23.9
2022-09-13T13:08:43.941Z,23.9
2022-09-13T13:09:48.191Z,23.91
2022-09-13T13:10:52.412Z,23.91
2022-09-13T13:11:56.643Z,23.89
2022-09-13T13:13:01.003Z,23.91
2022-09-13T13:14:05.230Z,23.92
2022-09-13T13:15:09.433Z,23.92
2022-09-13T13:16:13.714Z,23.93
2022-09-13T13:17:18.074Z,23.92
2022-09-13T13:18:22.331Z,23.92
2022-09-13T13:19:26.575Z,23.93
2022-09-13T13:20:31.881Z,23.94
2022-09-13T13:21:36.134Z,23.95
2022-09-13T13:22:40.376Z,23.96
2022-09-13T13:23:44.651Z,23.97
2022-09-13T13:24:49.043Z,23.97
2022-09-13T13:25:53.327Z,23.96
2022-09-13T13:26:57.578Z,23.93
2022-09-13T13:28:01.801Z,23.96
2022-09-13T13:29:07.124Z,23.96
2022-09-13T13:30:11.356Z,23.96
2022-09-13T13:31:15.611Z,23.96
2022-09-13T13:32:20.039Z,23.97
2022-09-13T13:33:24.246Z,23.96
2022-09-13T13:34:28.495Z,23.95
2022-09-13T13:35:32.716Z,23.94
2022-09-13T13:36:36.958Z,23.95
2022-09-13T13:37:41.169Z,23.94
2022-09-13T13:38:45.393Z,23.94
2022-09-13T13:39:49.663Z,23.93
2022-09-13T13:40:54.044Z,23.94
2022-09-13T13:41:58.282Z,23.94
2022-09-13T13:43:02.503Z,23.91
2022-09-13T13:44:06.708Z,23.91
2022-09-13T13:45:11.048Z,23.9
2022-09-13T13:46:15.301Z,23.9
2022-09-13T13:47:19.506Z,23.89
2022-09-13T13:48:23.700Z,23.91
2022-09-13T13:49:27.938Z,23.9
2022-09-13T13:50:33.932Z,23.89
2022-09-13T13:51:43.097Z,23.88
2022-09-13T13:52:47.338Z,23.87
2022-09-13T13:53:51.570Z,23.88
2022-09-13T13:54:55.829Z,23.88
2022-09-13T13:56:00.052Z,23.89
2022-09-13T13:57:04.948Z,23.87
2022-09-13T13:58:13.912Z,23.88